Denver, CO

12:18 AM MDT on March 24, 2017 (GMT -0600)
Front Range | | Change Station
Active Advisory: Winter Weather Advisory

Elev 5512 ft 39.79 °N, 104.54 °W | Updated 3 minutes ago

Thunderstorm
Thunderstorm
41 °F
Feels Like 30 °F
N
28
Wind Variable Wind from North
Gusts 36 mph

Today
High -- | Low -- °F
--% Chance of Precip.
Yesterday
High -- | Low -- °F
Precip. -- in
Pressure 29.81 in
Visibility 3.0 miles
Clouds Overcast 1500 ft
Windchill 30 °F
Dew Point 37 °F
Humidity 87%
Rainfall 0.00 in
Snow Depth Not available.
6:54 AM 7:14 PM
Waning Crescent, 17% visible
METAR KFTG 240615Z AUTO 01024G31KT 3SM -VCTSRA OVC015 05/03 A2981 RMK AO2 LTG DSNT N THRU S
Pressure 29.81 in
Visibility 3.0 miles
Clouds Overcast 1500 ft
Windchill 30 °F
Dew Point 37 °F
Humidity 87%
Rainfall 0.00 in
Snow Depth Not available.
6:54 AM 7:14 PM
Waning Crescent, 17% visible
METAR KFTG 240615Z AUTO 01024G31KT 3SM -VCTSRA OVC015 05/03 A2981 RMK AO2 LTG DSNT N THRU S

Get Your Daily Forecast Email!

Thanks for signing up!

Be on the lookout for a verification email in your inbox.

You'll start receiving severe weather alerts in your inbox..

×

10-Day Weather Forecast

Almanac

Astronomy

Mar. 24, 2017 Rise Set
Actual Time
Civil Twilight
Nautical Twilight
Astronomical Twilight
Moon
Length of Visible Light
Length of Day
Tomorrow will be .
, % of the Moon is Illuminated

Today's Extremes

State Highs State Lows

Community

WunderPhotos

Upload Photos

1,962,540 photos uploaded!

WunderBlog® & News

Nearby

Air Quality

  Air Quality AQ Index Pollutant
Not available.

Snow Depth

Station Depth Elevation

Earthquake Activity

City Distance Mag. Time & Date
Minimum magnitude displayed is 2.5.

Earthquake Activity

City Distance Mag. Time & Date
Minimum magnitude displayed is 2.5.

Coastal Water Temperatures

Place Temperature

Stations

Nearby Weather Stations

Station Location Temp. Windchill Dew Point Humidity Wind Precip. Elev Updated Type
                   

Watches & Warnings

Winter Weather Advisory
Issued: 11:43 PM MDT Mar. 23, 2017 – National Weather Service

... Winter Weather Advisory remains in effect from 3 am to noon
MDT Friday...

* timing... snow will increase in intensity over the northern
mountains after midnight and continue into Friday morning. The
heaviest snowfall is likely from late night through mid
morning Friday.

* Snow accumulations... 2 to 6 inches, heaviest south of Interstate
70.

* Wind/visibility... north 20 to 35 mph with gusts to 45 mph.
Visibilities could be under one quarter of a mile in heavier
snow.

* Impacts... snow, gusty winds and poor visibilities will create
hazardous winter driving conditions. Roads will be icy and
snow packed.

Precautionary/preparedness actions...

A Winter Weather Advisory for snow means that periods of snow
will cause primarily travel difficulties. Be prepared for snow
covered roads and limited visibilities... and use caution while
driving.